createdAt,value
2023-08-06T00:02:07.797Z,2.33
2023-08-06T00:04:36.055Z,2.33
2023-08-06T00:07:05.048Z,2.58
2023-08-06T00:09:33.261Z,2.70
2023-08-06T00:12:01.769Z,2.17
2023-08-06T00:14:31.358Z,2.50
2023-08-06T00:16:59.918Z,2.92
2023-08-06T00:19:28.212Z,2.80
2023-08-06T00:21:56.732Z,2.90
2023-08-06T00:24:24.891Z,2.95
2023-08-06T00:26:53.355Z,2.50
2023-08-06T00:29:21.744Z,2.40
2023-08-06T00:31:51.743Z,2.67
2023-08-06T00:34:20.146Z,2.53
2023-08-06T00:36:49.028Z,3.05
2023-08-06T00:39:17.200Z,3.58
2023-08-06T00:41:45.637Z,2.97
2023-08-06T00:44:13.904Z,3.20
2023-08-06T00:46:42.567Z,3.28
2023-08-06T00:49:12.272Z,3.83
2023-08-06T00:51:40.867Z,3.55
2023-08-06T00:54:09.136Z,3.33
2023-08-06T00:56:39.301Z,2.58
2023-08-06T00:59:12.767Z,2.55
2023-08-06T01:01:41.784Z,3.08
2023-08-06T01:04:12.320Z,2.60
2023-08-06T01:06:46.389Z,2.63
2023-08-06T01:09:29.234Z,2.47
2023-08-06T01:12:07.645Z,2.90
2023-08-06T01:14:47.518Z,3.00
2023-08-06T01:17:19.264Z,2.75
2023-08-06T01:19:48.944Z,2.55
2023-08-06T01:22:18.815Z,2.83
2023-08-06T01:24:51.140Z,2.50
2023-08-06T01:27:29.484Z,2.28
2023-08-06T01:30:06.255Z,2.47
2023-08-06T01:32:37.733Z,2.72
2023-08-06T01:35:07.653Z,2.58
2023-08-06T01:37:38.725Z,2.70
2023-08-06T01:40:09.522Z,2.42
2023-08-06T01:42:40.525Z,2.42
2023-08-06T01:45:10.122Z,2.90
2023-08-06T01:47:39.018Z,2.17
2023-08-06T01:50:08.073Z,2.45
2023-08-06T01:57:35.200Z,2.28
2023-08-06T02:00:04.415Z,2.60
2023-08-06T02:02:32.954Z,2.10
2023-08-06T02:05:01.190Z,2.25
2023-08-06T02:07:32.001Z,2.60
2023-08-06T02:10:01.725Z,2.00
2023-08-06T02:12:30.226Z,1.92
2023-08-06T02:14:58.388Z,2.20
2023-08-06T02:17:26.924Z,2.33
2023-08-06T02:19:55.182Z,2.50
2023-08-06T02:22:24.244Z,2.43
2023-08-06T02:24:52.448Z,2.28
2023-08-06T02:27:22.274Z,2.50
2023-08-06T02:29:52.913Z,2.58
2023-08-06T02:32:21.408Z,2.35
2023-08-06T02:34:49.597Z,2.50
2023-08-06T02:37:18.050Z,2.80
2023-08-06T02:39:46.690Z,2.40
2023-08-06T02:42:15.160Z,2.90
2023-08-06T02:44:44.693Z,2.67
2023-08-06T02:47:13.165Z,2.92
2023-08-06T02:49:41.527Z,2.45
2023-08-06T02:52:10.114Z,2.73
2023-08-06T02:54:38.290Z,2.50
2023-08-06T02:57:07.947Z,2.87
2023-08-06T02:59:36.267Z,3.15
2023-08-06T03:02:06.814Z,3.03
2023-08-06T03:04:35.090Z,3.40
2023-08-06T03:07:03.628Z,3.33
2023-08-06T03:09:31.902Z,3.08
2023-08-06T03:12:00.386Z,3.17
2023-08-06T03:14:28.608Z,3.60
2023-08-06T03:16:57.143Z,3.70
2023-08-06T03:19:26.706Z,3.72
2023-08-06T03:21:55.788Z,3.58
2023-08-06T03:24:24.058Z,3.40
2023-08-06T03:26:52.549Z,3.70
2023-08-06T03:29:21.286Z,4.60
2023-08-06T03:31:50.264Z,4.53
2023-08-06T03:34:18.664Z,4.35
2023-08-06T03:36:48.707Z,4.70
2023-08-06T03:39:17.057Z,5.03
2023-08-06T03:41:45.665Z,4.32
2023-08-06T03:44:13.884Z,3.90
2023-08-06T03:46:42.487Z,5.00
2023-08-06T03:49:10.927Z,4.57
2023-08-06T03:51:39.415Z,4.63
2023-08-06T03:54:08.996Z,4.50
2023-08-06T03:56:37.461Z,5.35
2023-08-06T03:59:05.664Z,4.35
2023-08-06T04:01:34.167Z,4.97
2023-08-06T04:04:02.326Z,5.85
2023-08-06T04:06:30.775Z,6.03
2023-08-06T04:08:58.975Z,6.78
2023-08-06T04:11:28.814Z,6.30
2023-08-06T04:13:56.994Z,5.97
2023-08-06T04:16:27.555Z,5.67
2023-08-06T04:18:57.735Z,5.80
2023-08-06T04:21:26.344Z,5.68
2023-08-06T04:23:54.618Z,5.15
2023-08-06T04:26:23.049Z,5.55
2023-08-06T04:28:52.602Z,5.07
2023-08-06T04:31:22.426Z,5.43
2023-08-06T04:33:50.683Z,5.25
2023-08-06T04:36:19.125Z,5.65
2023-08-06T04:38:48.585Z,5.47
2023-08-06T04:41:17.140Z,5.20
2023-08-06T04:43:45.304Z,5.10
2023-08-06T04:46:15.378Z,5.17
2023-08-06T04:48:43.618Z,4.50
2023-08-06T04:51:12.062Z,5.13
2023-08-06T04:53:40.231Z,5.70
2023-08-06T04:56:08.659Z,5.37
2023-08-06T04:58:39.398Z,5.28
2023-08-06T05:01:08.932Z,6.03
2023-08-06T05:03:38.605Z,6.60
2023-08-06T05:06:07.132Z,7.43
2023-08-06T05:08:35.492Z,6.65
2023-08-06T05:11:04.044Z,5.60
2023-08-06T05:13:32.242Z,6.43
2023-08-06T05:16:00.820Z,5.72
2023-08-06T05:18:29.434Z,4.70
2023-08-06T05:20:59.303Z,5.10
2023-08-06T05:23:27.728Z,4.57
2023-08-06T05:25:58.581Z,4.47
2023-08-06T05:28:27.034Z,4.45
2023-08-06T05:30:55.495Z,4.00
2023-08-06T05:33:23.696Z,4.75
2023-08-06T05:35:52.377Z,4.30
2023-08-06T05:38:21.986Z,4.50
2023-08-06T05:40:53.159Z,4.20
2023-08-06T05:43:21.467Z,4.68
2023-08-06T05:45:52.224Z,4.82
2023-08-06T05:48:20.432Z,5.85
2023-08-06T05:50:48.904Z,5.73
2023-08-06T05:53:17.141Z,6.28
2023-08-06T05:55:47.347Z,5.53
2023-08-06T05:58:18.167Z,4.82
2023-08-06T06:00:47.374Z,4.70
2023-08-06T06:03:15.842Z,4.50
2023-08-06T06:05:44.343Z,4.80
2023-08-06T06:08:12.577Z,4.40
2023-08-06T06:10:41.057Z,4.80
2023-08-06T06:13:10.769Z,4.95
2023-08-06T06:15:41.700Z,4.85
2023-08-06T06:18:09.924Z,4.93
2023-08-06T06:20:38.372Z,4.90
2023-08-06T06:23:06.702Z,4.97
2023-08-06T06:25:35.156Z,4.70
2023-08-06T06:28:03.458Z,4.05
2023-08-06T06:30:33.407Z,4.82
2023-08-06T06:33:01.728Z,5.22
2023-08-06T06:35:30.249Z,6.10
2023-08-06T06:37:58.484Z,6.97
2023-08-06T06:40:27.065Z,7.75
2023-08-06T06:42:55.432Z,7.60
2023-08-06T06:45:23.982Z,7.47
2023-08-06T06:47:53.605Z,7.65
2023-08-06T06:50:22.171Z,6.85
2023-08-06T06:52:50.399Z,7.00
2023-08-06T06:55:19.043Z,7.15
2023-08-06T06:57:47.310Z,7.00
2023-08-06T07:00:17.037Z,6.15
2023-08-06T07:05:15.150Z,6.07
2023-08-06T07:07:43.388Z,6.15
2023-08-06T07:10:12.357Z,4.90
2023-08-06T07:12:40.588Z,4.35
2023-08-06T07:15:09.692Z,3.80
2023-08-06T07:17:37.917Z,2.45
2023-08-06T07:20:08.930Z,3.17
2023-08-06T07:22:40.942Z,2.78
2023-08-06T07:25:10.130Z,3.20
2023-08-06T07:27:38.467Z,3.20
2023-08-06T07:30:08.234Z,3.97
2023-08-06T07:32:36.542Z,4.47
2023-08-06T07:35:06.051Z,4.55
2023-08-06T07:37:34.226Z,5.05
2023-08-06T07:40:04.751Z,6.80
2023-08-06T07:42:33.058Z,6.00
2023-08-06T07:45:02.010Z,6.35
2023-08-06T07:47:30.308Z,6.63
2023-08-06T07:49:58.792Z,6.47
2023-08-06T07:52:27.310Z,6.78
2023-08-06T07:54:55.791Z,6.90
2023-08-06T07:57:27.697Z,6.28
2023-08-06T07:59:56.378Z,5.95
2023-08-06T08:02:25.166Z,5.63
2023-08-06T08:04:53.882Z,5.30
2023-08-06T08:07:22.804Z,5.33
2023-08-06T08:09:51.276Z,5.30
2023-08-06T08:12:19.620Z,5.15
2023-08-06T08:14:55.025Z,4.70
2023-08-06T08:17:23.262Z,4.75
2023-08-06T08:19:51.747Z,5.97
2023-08-06T08:22:21.703Z,5.72
2023-08-06T08:24:50.398Z,6.00
2023-08-06T08:27:18.597Z,6.27
2023-08-06T08:29:47.161Z,6.15
2023-08-06T08:32:16.757Z,6.25
2023-08-06T08:34:45.445Z,6.60
2023-08-06T08:37:13.638Z,6.33
2023-08-06T08:39:42.143Z,7.32
2023-08-06T08:42:12.356Z,7.30
2023-08-06T08:44:42.244Z,7.50
2023-08-06T08:47:10.983Z,8.27
2023-08-06T08:49:41.518Z,8.27
2023-08-06T08:52:14.261Z,7.53
2023-08-06T08:54:44.515Z,8.60
2023-08-06T08:57:12.712Z,8.10
2023-08-06T08:59:41.216Z,8.48
2023-08-06T09:02:13.838Z,7.82
2023-08-06T09:04:44.684Z,8.13
2023-08-06T09:07:17.736Z,7.57
2023-08-06T09:09:49.313Z,7.60
2023-08-06T09:12:18.839Z,7.05
2023-08-06T09:14:47.395Z,6.80
2023-08-06T09:17:15.983Z,7.38
2023-08-06T09:19:48.178Z,6.63
2023-08-06T09:22:16.447Z,6.53
2023-08-06T09:24:45.376Z,6.38
2023-08-06T09:27:15.235Z,6.03
2023-08-06T09:29:46.542Z,5.15
2023-08-06T09:32:15.246Z,5.13
2023-08-06T09:34:46.293Z,5.70
2023-08-06T09:37:14.707Z,5.43
2023-08-06T09:39:43.611Z,5.55
2023-08-06T09:42:11.801Z,5.10
2023-08-06T09:44:43.276Z,5.65
2023-08-06T09:47:11.735Z,5.18
2023-08-06T09:49:46.807Z,5.03
2023-08-06T09:52:17.179Z,5.20
2023-08-06T09:54:47.262Z,4.95
2023-08-06T09:57:17.057Z,4.80
2023-08-06T09:59:46.655Z,5.28
2023-08-06T10:02:16.466Z,5.47
2023-08-06T10:04:54.950Z,5.50
2023-08-06T10:07:25.585Z,5.30
2023-08-06T10:09:54.335Z,5.85
2023-08-06T10:12:23.947Z,5.68
2023-08-06T10:14:53.438Z,6.00
2023-08-06T10:19:52.702Z,7.03
2023-08-06T10:22:24.616Z,6.13
2023-08-06T10:24:55.017Z,6.45
2023-08-06T10:27:25.924Z,6.20
2023-08-06T10:29:55.864Z,6.10
2023-08-06T10:32:52.601Z,6.57
2023-08-06T10:35:33.344Z,5.95
2023-08-06T10:38:05.783Z,6.20
2023-08-06T10:40:34.971Z,6.50
2023-08-06T10:43:07.641Z,6.05
2023-08-06T10:45:40.810Z,6.47
2023-08-06T10:48:09.026Z,6.57
2023-08-06T10:50:39.526Z,5.72
2023-08-06T10:53:08.289Z,5.88
2023-08-06T10:55:39.542Z,5.35
2023-08-06T10:58:09.404Z,5.50
2023-08-06T11:00:40.348Z,5.25
2023-08-06T11:03:09.070Z,5.00
2023-08-06T11:05:39.360Z,5.30
2023-08-06T11:08:07.611Z,5.18
2023-08-06T11:10:39.695Z,5.60
2023-08-06T11:13:11.507Z,5.45
2023-08-06T11:15:39.992Z,5.72
2023-08-06T11:18:08.688Z,5.50
2023-08-06T11:20:37.275Z,6.13
2023-08-06T11:23:07.274Z,6.30
2023-08-06T11:25:39.211Z,5.65
2023-08-06T11:28:07.399Z,6.22
2023-08-06T11:30:35.972Z,6.50
2023-08-06T11:33:04.420Z,6.38
2023-08-06T11:35:36.246Z,6.80
2023-08-06T11:38:04.662Z,6.15
2023-08-06T11:40:35.501Z,6.22
2023-08-06T11:43:03.806Z,6.53
2023-08-06T11:45:35.040Z,6.63
2023-08-06T11:48:04.225Z,6.18
2023-08-06T11:50:39.537Z,6.60
2023-08-06T11:53:08.107Z,5.90
2023-08-06T11:55:38.149Z,6.25
2023-08-06T11:58:09.248Z,6.68
2023-08-06T12:00:38.966Z,7.15
2023-08-06T12:03:07.879Z,5.72
2023-08-06T12:05:36.672Z,6.40
2023-08-06T12:08:05.639Z,6.28
2023-08-06T12:10:35.020Z,6.57
2023-08-06T12:15:34.030Z,6.22
2023-08-06T12:18:02.444Z,6.03
2023-08-06T12:20:31.366Z,6.25
2023-08-06T12:22:59.525Z,6.07
2023-08-06T12:25:28.003Z,6.47
2023-08-06T12:27:56.204Z,6.43
2023-08-06T12:30:26.108Z,6.70
2023-08-06T12:32:54.536Z,6.38
2023-08-06T12:35:26.855Z,6.65
2023-08-06T12:37:55.990Z,6.20
2023-08-06T12:40:35.780Z,7.28
2023-08-06T12:43:05.532Z,7.00
2023-08-06T12:45:35.955Z,6.65
2023-08-06T12:48:04.546Z,7.00
2023-08-06T12:50:36.414Z,7.10
2023-08-06T12:53:06.768Z,7.55
2023-08-06T12:55:35.525Z,7.47
2023-08-06T12:58:06.560Z,7.32
2023-08-06T13:00:36.592Z,7.82
2023-08-06T13:03:05.374Z,7.43
2023-08-06T13:05:37.521Z,7.53
2023-08-06T13:08:06.277Z,7.63
2023-08-06T13:13:02.926Z,7.60
2023-08-06T13:15:31.524Z,7.72
2023-08-06T13:18:01.058Z,7.28
2023-08-06T13:20:33.762Z,7.22
2023-08-06T13:23:04.973Z,7.20
2023-08-06T13:25:40.441Z,7.35
2023-08-06T13:28:08.673Z,8.60
2023-08-06T13:30:43.250Z,8.90
2023-08-06T13:33:13.938Z,8.50
2023-08-06T13:35:42.556Z,8.52
2023-08-06T13:38:10.779Z,9.00
2023-08-06T13:40:41.347Z,8.68
2023-08-06T13:43:09.601Z,8.57
2023-08-06T13:45:39.415Z,8.35
2023-08-06T13:48:08.791Z,8.27
2023-08-06T13:50:41.116Z,7.75
2023-08-06T13:53:09.657Z,8.50
2023-08-06T13:55:38.382Z,8.20
2023-08-06T13:58:06.693Z,8.90
2023-08-06T14:00:35.372Z,7.75
2023-08-06T14:03:03.819Z,8.45
2023-08-06T14:05:32.524Z,8.23
2023-08-06T14:08:02.222Z,8.20
2023-08-06T14:10:30.791Z,8.18
2023-08-06T14:13:09.298Z,8.10
2023-08-06T14:15:41.688Z,7.53
2023-08-06T14:18:10.968Z,7.80
2023-08-06T14:20:39.668Z,8.20
2023-08-06T14:23:09.419Z,9.00
2023-08-06T14:25:38.125Z,8.57
2023-08-06T14:28:07.579Z,8.68
2023-08-06T14:30:36.985Z,9.13
2023-08-06T14:33:20.788Z,8.32
2023-08-06T14:35:53.913Z,9.50
2023-08-06T14:38:23.647Z,9.30
2023-08-06T14:40:52.169Z,9.30
2023-08-06T14:43:20.388Z,9.50
2023-08-06T14:45:48.968Z,9.57
2023-08-06T14:48:17.138Z,10.20
2023-08-06T14:50:46.005Z,10.60
2023-08-06T14:53:14.444Z,10.30
2023-08-06T14:55:44.497Z,11.18
2023-08-06T14:58:12.702Z,11.18
2023-08-06T15:00:41.549Z,10.75
2023-08-06T15:03:09.986Z,11.95
2023-08-06T15:05:38.780Z,10.40
2023-08-06T15:08:06.991Z,13.13
2023-08-06T15:10:35.469Z,12.25
2023-08-06T15:13:05.133Z,12.30
2023-08-06T15:15:33.603Z,12.77
2023-08-06T15:18:03.141Z,11.77
2023-08-06T15:20:31.666Z,12.70
2023-08-06T15:22:59.846Z,12.70
2023-08-06T15:25:28.825Z,12.88
2023-08-06T15:27:57.155Z,12.65
2023-08-06T15:30:27.043Z,12.93
2023-08-06T15:32:55.659Z,12.90
2023-08-06T15:35:24.170Z,14.00
2023-08-06T15:37:52.347Z,13.27
2023-08-06T15:40:20.793Z,12.90
2023-08-06T15:42:49.225Z,12.43
2023-08-06T15:45:17.936Z,13.23
2023-08-06T15:47:47.582Z,12.02
2023-08-06T15:50:16.174Z,13.05
2023-08-06T15:52:46.197Z,12.03
2023-08-06T15:55:14.682Z,11.80
2023-08-06T15:57:44.012Z,10.82
2023-08-06T16:00:13.354Z,12.15
2023-08-06T16:02:41.762Z,13.85
2023-08-06T16:05:12.436Z,15.27
2023-08-06T16:07:40.785Z,15.50
2023-08-06T16:10:09.650Z,13.02
2023-08-06T16:12:37.828Z,14.95
2023-08-06T16:15:07.612Z,14.48
2023-08-06T16:17:36.484Z,12.10
2023-08-06T16:22:36.766Z,13.07
2023-08-06T16:25:06.298Z,13.57
2023-08-06T16:30:05.523Z,14.93
2023-08-06T16:32:34.492Z,13.63
2023-08-06T16:35:03.474Z,13.80
2023-08-06T16:37:31.752Z,14.00
2023-08-06T16:40:01.734Z,12.80
2023-08-06T16:42:30.271Z,11.35
2023-08-06T16:44:58.820Z,11.25
2023-08-06T16:47:27.313Z,10.63
2023-08-06T16:49:55.919Z,11.07
2023-08-06T16:52:24.085Z,10.05
2023-08-06T16:54:52.678Z,9.25
2023-08-06T16:57:22.239Z,8.17
2023-08-06T16:59:51.949Z,7.50
2023-08-06T17:02:20.430Z,9.15
2023-08-06T17:04:49.299Z,9.00
2023-08-06T17:07:17.530Z,8.45
2023-08-06T17:09:46.171Z,4.97
2023-08-06T17:12:18.498Z,4.47
2023-08-06T17:14:52.524Z,4.10
2023-08-06T17:17:20.800Z,3.53
2023-08-06T17:19:49.595Z,2.65
2023-08-06T17:22:17.763Z,3.10
2023-08-06T17:24:46.244Z,3.03
2023-08-06T17:27:14.431Z,2.72
2023-08-06T17:29:44.088Z,3.13
2023-08-06T17:32:14.359Z,2.78
2023-08-06T17:34:43.056Z,2.67
2023-08-06T17:37:11.244Z,2.30
2023-08-06T17:39:39.748Z,2.80
2023-08-06T17:42:11.696Z,2.72
2023-08-06T17:44:40.831Z,2.60
2023-08-06T17:47:13.427Z,3.28
2023-08-06T17:49:47.668Z,2.90
2023-08-06T17:52:15.943Z,3.00
2023-08-06T17:54:44.425Z,2.67
2023-08-06T17:57:12.645Z,3.10
2023-08-06T17:59:41.146Z,3.72
2023-08-06T18:02:09.418Z,2.92
2023-08-06T18:04:37.983Z,3.22
2023-08-06T18:07:08.731Z,3.20
2023-08-06T18:09:37.412Z,3.38
2023-08-06T18:12:06.972Z,3.17
2023-08-06T18:14:35.234Z,3.60
2023-08-06T18:17:03.562Z,3.55
2023-08-06T18:19:32.396Z,3.60
2023-08-06T18:22:02.326Z,3.90
2023-08-06T18:24:32.167Z,3.92
2023-08-06T18:27:00.823Z,4.50
2023-08-06T18:29:29.402Z,4.50
2023-08-06T18:31:57.597Z,4.30
2023-08-06T18:34:27.344Z,4.00
2023-08-06T18:36:56.165Z,4.72
2023-08-06T18:39:25.122Z,4.63
2023-08-06T18:41:54.784Z,4.80
2023-08-06T18:44:23.272Z,4.80
2023-08-06T18:46:51.543Z,5.13
2023-08-06T18:49:23.049Z,4.85
2023-08-06T18:51:51.240Z,4.80
2023-08-06T18:54:19.984Z,5.30
2023-08-06T18:56:48.302Z,5.40
2023-08-06T18:59:23.786Z,5.38
2023-08-06T19:01:52.102Z,5.75
2023-08-06T19:04:21.787Z,7.07
2023-08-06T19:06:49.984Z,6.97
2023-08-06T19:09:21.479Z,7.95
2023-08-06T19:11:50.276Z,8.55
2023-08-06T19:14:21.011Z,8.57
2023-08-06T19:16:49.361Z,8.70
2023-08-06T19:19:20.647Z,7.72
2023-08-06T19:21:50.026Z,9.00
2023-08-06T19:24:18.543Z,8.93
2023-08-06T19:26:46.752Z,8.68
2023-08-06T19:29:15.398Z,7.90
2023-08-06T19:31:56.014Z,9.00
2023-08-06T19:34:36.397Z,9.18
2023-08-06T19:37:09.057Z,8.95
2023-08-06T19:39:37.604Z,8.65
2023-08-06T19:42:07.359Z,8.65
2023-08-06T19:44:36.380Z,9.00
2023-08-06T19:47:07.853Z,8.02
2023-08-06T19:49:38.211Z,7.07
2023-08-06T19:52:07.775Z,7.20
2023-08-06T19:54:37.491Z,5.82
2023-08-06T19:57:09.318Z,5.53
2023-08-06T19:59:38.057Z,5.30
2023-08-06T20:02:10.677Z,4.20
2023-08-06T20:04:39.198Z,3.90
2023-08-06T20:07:07.854Z,2.58
2023-08-06T20:09:36.523Z,2.90
2023-08-06T20:12:05.575Z,2.80
2023-08-06T20:14:34.690Z,2.42
2023-08-06T20:17:06.876Z,2.30
2023-08-06T20:19:41.914Z,2.03
2023-08-06T20:22:10.122Z,1.95
2023-08-06T20:24:38.811Z,1.70
2023-08-06T20:27:10.018Z,1.80
2023-08-06T20:29:40.327Z,1.80
2023-08-06T20:32:10.317Z,1.80
2023-08-06T20:34:42.792Z,1.80
2023-08-06T20:37:10.968Z,1.65
2023-08-06T20:39:39.577Z,1.65
2023-08-06T20:42:08.074Z,1.90
2023-08-06T20:44:38.436Z,1.60
2023-08-06T20:47:07.849Z,1.50
2023-08-06T20:49:36.381Z,1.35
2023-08-06T20:52:08.901Z,1.15
2023-08-06T20:54:37.618Z,1.13
2023-08-06T20:57:06.681Z,1.13
2023-08-06T21:02:03.254Z,1.05
2023-08-06T21:04:31.983Z,0.95
2023-08-06T21:07:00.302Z,0.87
2023-08-06T21:09:30.176Z,0.85
2023-08-06T21:11:58.366Z,0.73
2023-08-06T21:14:26.901Z,0.67
2023-08-06T21:16:55.102Z,0.90
2023-08-06T21:19:23.881Z,0.82
2023-08-06T21:21:52.087Z,0.70
2023-08-06T21:24:20.679Z,0.90
2023-08-06T21:26:50.225Z,0.90
2023-08-06T21:29:18.727Z,1.00
2023-08-06T21:31:47.121Z,0.90
2023-08-06T21:34:18.672Z,0.93
2023-08-06T21:36:46.856Z,0.80
2023-08-06T21:39:15.412Z,0.90
2023-08-06T21:41:43.617Z,1.02
2023-08-06T21:44:13.714Z,0.80
2023-08-06T21:46:41.940Z,0.80
2023-08-06T21:49:10.620Z,1.30
2023-08-06T21:51:38.825Z,1.30
2023-08-06T21:54:07.302Z,1.20
2023-08-06T21:56:35.674Z,1.27
2023-08-06T21:59:04.141Z,1.13
2023-08-06T22:01:33.847Z,1.10
2023-08-06T22:04:02.379Z,1.48
2023-08-06T22:06:30.659Z,1.30
2023-08-06T22:08:59.141Z,1.27
2023-08-06T22:11:29.509Z,1.00
2023-08-06T22:13:59.375Z,1.00
2023-08-06T22:16:27.940Z,1.23
2023-08-06T22:18:58.167Z,0.93
2023-08-06T22:21:26.419Z,1.00
2023-08-06T22:23:54.921Z,0.90
2023-08-06T22:26:23.112Z,0.90
2023-08-06T22:29:00.721Z,0.80
2023-08-06T22:31:30.117Z,0.60
2023-08-06T22:34:00.315Z,0.50
2023-08-06T22:36:28.724Z,0.60
2023-08-06T22:38:57.200Z,0.30
2023-08-06T22:41:25.753Z,0.40
2023-08-06T22:43:54.281Z,0.30
2023-08-06T22:46:23.156Z,0.20
2023-08-06T22:48:51.665Z,0.20
2023-08-06T22:51:21.542Z,0.10
2023-08-06T22:53:50.120Z,0.10
2023-08-06T22:56:18.311Z,0.20
2023-08-06T22:58:49.280Z,0.10
2023-08-06T23:01:17.678Z,0.10
2023-08-06T23:03:46.501Z,0.20
2023-08-06T23:06:14.768Z,0.20
2023-08-06T23:08:44.913Z,0.10
2023-08-06T23:11:13.198Z,0.10
2023-08-06T23:13:42.712Z,0.10
2023-08-06T23:16:12.615Z,0.30
2023-08-06T23:18:41.170Z,0.10
2023-08-06T23:21:09.364Z,0.00
2023-08-06T23:23:37.816Z,0.10
2023-08-06T23:26:07.354Z,0.08
2023-08-06T23:28:35.818Z,0.00
2023-08-06T23:31:04.200Z,0.00
2023-08-06T23:33:32.669Z,0.10
2023-08-06T23:36:00.854Z,0.10
2023-08-06T23:38:29.412Z,0.10
2023-08-06T23:40:59.838Z,0.10
2023-08-06T23:43:29.731Z,0.13
2023-08-06T23:46:00.011Z,0.00
2023-08-06T23:48:29.285Z,0.10
2023-08-06T23:50:57.507Z,0.13
2023-08-06T23:53:26.000Z,0.10
2023-08-06T23:55:54.299Z,0.20
2023-08-06T23:58:22.871Z,0.10
